Time;durP1;ratioP1;P1;durP2;ratioP2;P2;SDS_P1;SDS_P2;PMS_P1;PMS_P2;Temp;Humidity;BMP_temperature;BMP_pressure;BME280_temperature;BME280_humidity;BME280_pressure;Samples;Min_cycle;Max_cycle;Signal;HPM_P1;HPM_P2
2021/09/19 00:00:19;;;;;;;13.00;11.25;;;15.00;99.90;;;;;;5046783;28;40027;-80
2021/09/19 00:02:46;;;;;;;12.73;11.15;;;15.00;99.90;;;;;;5041615;28;37699;-81
2021/09/19 00:05:13;;;;;;;13.55;11.95;;;14.90;99.90;;;;;;5029922;28;36330;-80
2021/09/19 00:07:39;;;;;;;12.38;11.13;;;14.90;99.90;;;;;;5051551;28;38357;-81
2021/09/19 00:10:07;;;;;;;13.13;11.35;;;14.90;99.90;;;;;;5051818;28;38697;-80
2021/09/19 00:12:34;;;;;;;14.73;11.32;;;14.80;99.90;;;;;;5020966;28;38032;-80
2021/09/19 00:15:00;;;;;;;15.55;12.25;;;14.80;99.90;;;;;;5018443;28;37711;-80
2021/09/19 00:17:26;;;;;;;13.30;12.00;;;14.80;99.90;;;;;;5034288;28;47733;-81
2021/09/19 00:19:53;;;;;;;20.35;12.32;;;14.80;99.90;;;;;;5022473;28;38924;-81
2021/09/19 00:22:19;;;;;;;13.90;11.43;;;14.80;99.90;;;;;;5036515;28;39361;-80
2021/09/19 00:24:45;;;;;;;13.10;11.10;;;14.80;99.90;;;;;;5036503;28;36479;-80
2021/09/19 00:27:11;;;;;;;14.70;11.30;;;14.70;99.90;;;;;;5014721;28;38363;-79
2021/09/19 00:29:37;;;;;;;13.02;10.90;;;14.70;99.90;;;;;;5017189;28;37027;-80
2021/09/19 00:32:04;;;;;;;14.30;11.70;;;14.70;99.90;;;;;;5024357;28;38706;-80
2021/09/19 00:34:30;;;;;;;13.30;11.45;;;14.70;99.90;;;;;;5038485;28;36764;-79
2021/09/19 00:36:57;;;;;;;13.60;11.45;;;14.60;99.90;;;;;;5041498;28;39322;-81
2021/09/19 00:39:23;;;;;;;14.45;11.80;;;14.60;99.90;;;;;;5020796;28;38236;-80
2021/09/19 00:41:49;;;;;;;15.77;11.60;;;14.60;99.90;;;;;;5038698;28;38789;-80
2021/09/19 00:44:15;;;;;;;14.35;11.98;;;14.60;99.90;;;;;;5038790;28;35622;-81
2021/09/19 00:46:41;;;;;;;13.85;10.85;;;14.60;99.90;;;;;;5024755;28;39849;-83
2021/09/19 00:49:07;;;;;;;13.05;11.68;;;14.60;99.90;;;;;;5025018;28;41284;-81
2021/09/19 00:51:34;;;;;;;12.02;10.73;;;14.60;99.90;;;;;;5042283;28;36937;-81
2021/09/19 00:54:02;;;;;;;13.05;11.15;;;14.50;99.90;;;;;;5028682;28;37949;-81
2021/09/19 00:56:29;;;;;;;15.18;11.27;;;14.50;99.90;;;;;;5044983;28;48992;-80
2021/09/19 00:58:57;;;;;;;12.90;11.40;;;14.50;99.90;;;;;;5039331;28;38495;-80
2021/09/19 01:01:24;;;;;;;13.93;11.27;;;14.40;99.90;;;;;;5034051;28;37290;-80
2021/09/19 01:03:51;;;;;;;13.10;11.32;;;14.40;99.90;;;;;;5043630;28;38221;-80
2021/09/19 01:06:17;;;;;;;11.65;10.35;;;14.30;99.90;;;;;;5029059;28;39664;-81
2021/09/19 01:08:44;;;;;;;12.52;10.75;;;14.30;99.90;;;;;;5032636;28;39221;-81
2021/09/19 01:11:13;;;;;;;12.90;11.60;;;14.30;99.90;;;;;;5022891;28;37319;-80
2021/09/19 01:13:42;;;;;;;13.38;11.98;;;14.20;99.90;;;;;;5025562;28;36923;-80
2021/09/19 01:16:11;;;;;;;12.40;11.10;;;14.10;99.90;;;;;;5024778;28;37985;-80
2021/09/19 01:18:39;;;;;;;14.85;11.93;;;14.10;99.90;;;;;;5037415;28;37390;-81
2021/09/19 01:21:07;;;;;;;13.60;11.90;;;14.10;99.90;;;;;;5027076;28;36982;-80
2021/09/19 01:23:33;;;;;;;12.20;11.00;;;14.10;99.90;;;;;;5046409;28;35759;-80
2021/09/19 01:26:00;;;;;;;11.50;10.30;;;14.00;99.90;;;;;;5027502;28;39127;-81
2021/09/19 01:28:27;;;;;;;13.02;11.00;;;14.00;99.90;;;;;;5043254;28;38381;-80
2021/09/19 01:30:54;;;;;;;12.63;10.68;;;14.00;99.90;;;;;;5044813;28;40406;-81
2021/09/19 01:33:20;;;;;;;13.07;11.68;;;14.10;99.90;;;;;;5024045;28;36378;-81
2021/09/19 01:35:48;;;;;;;13.75;11.25;;;14.10;99.90;;;;;;5027835;28;37673;-80
2021/09/19 01:38:15;;;;;;;11.80;10.60;;;14.10;99.90;;;;;;5044326;28;39317;-80
2021/09/19 01:40:42;;;;;;;13.30;11.88;;;14.10;99.90;;;;;;5023555;28;39225;-81
2021/09/19 01:43:09;;;;;;;14.43;11.35;;;14.10;99.90;;;;;;5047319;28;38401;-80
2021/09/19 01:45:37;;;;;;;15.05;11.48;;;14.10;99.90;;;;;;5026081;28;37502;-80
2021/09/19 01:48:03;;;;;;;14.13;11.23;;;14.10;99.90;;;;;;5027849;28;39115;-80
2021/09/19 01:50:29;;;;;;;14.27;11.00;;;14.10;99.90;;;;;;5043520;28;38025;-80
2021/09/19 01:52:56;;;;;;;14.02;12.00;;;14.10;99.90;;;;;;5030998;28;39308;-81
2021/09/19 01:55:22;;;;;;;12.57;11.13;;;14.10;99.90;;;;;;5045502;28;40017;-81
2021/09/19 01:57:48;;;;;;;12.57;10.85;;;14.00;99.90;;;;;;5042622;28;38986;-81
2021/09/19 02:00:15;;;;;;;12.50;10.23;;;14.00;99.90;;;;;;5029041;28;39134;-80
2021/09/19 02:02:41;;;;;;;11.65;10.40;;;14.00;99.90;;;;;;5028646;28;36575;-80
2021/09/19 02:05:09;;;;;;;11.98;10.45;;;13.90;99.90;;;;;;5048161;28;39297;-81
2021/09/19 02:07:37;;;;;;;13.98;10.82;;;13.90;99.90;;;;;;5035280;28;35890;-81
2021/09/19 02:10:06;;;;;;;12.40;10.90;;;13.90;99.90;;;;;;5034241;28;37254;-80
2021/09/19 02:12:34;;;;;;;13.80;11.60;;;13.80;99.90;;;;;;5024011;28;47042;-80
2021/09/19 02:15:02;;;;;;;12.43;11.13;;;13.80;99.90;;;;;;5042783;28;38715;-80
2021/09/19 02:17:28;;;;;;;14.18;11.27;;;13.80;99.90;;;;;;5026681;28;48260;-80
2021/09/19 02:19:54;;;;;;;12.88;10.88;;;13.70;99.90;;;;;;5027113;28;36535;-80
2021/09/19 02:22:20;;;;;;;11.85;10.63;;;13.70;99.90;;;;;;5043722;28;37560;-80
2021/09/19 02:24:46;;;;;;;13.15;11.75;;;13.70;99.90;;;;;;5031848;28;40344;-80
2021/09/19 02:27:12;;;;;;;12.85;11.02;;;13.70;99.90;;;;;;5049243;28;38738;-80
2021/09/19 02:29:38;;;;;;;13.75;11.85;;;13.70;99.90;;;;;;5030832;28;37098;-80
2021/09/19 02:32:05;;;;;;;13.85;12.45;;;13.70;99.90;;;;;;5049615;28;35314;-81
2021/09/19 02:34:31;;;;;;;12.57;11.27;;;13.70;99.90;;;;;;5034517;28;37889;-81
2021/09/19 02:36:57;;;;;;;13.10;11.75;;;13.80;99.90;;;;;;5033193;28;39239;-81
2021/09/19 02:39:23;;;;;;;13.40;11.45;;;13.70;99.90;;;;;;5033963;28;36451;-81
2021/09/19 02:41:49;;;;;;;13.88;11.80;;;13.70;99.90;;;;;;5034486;28;37496;-81
2021/09/19 02:44:16;;;;;;;11.95;10.65;;;13.70;99.90;;;;;;5044176;28;37756;-81
2021/09/19 02:46:42;;;;;;;11.77;10.35;;;13.70;99.90;;;;;;5047368;28;38431;-81
2021/09/19 02:49:08;;;;;;;13.80;12.10;;;13.60;99.90;;;;;;5045731;28;36947;-81
2021/09/19 02:51:34;;;;;;;13.65;11.25;;;13.60;99.90;;;;;;5045485;28;37298;-80
2021/09/19 02:54:00;;;;;;;13.40;12.07;;;13.60;99.90;;;;;;5044558;28;38728;-81
2021/09/19 02:56:26;;;;;;;13.10;11.80;;;13.60;99.90;;;;;;5026795;28;38922;-82
2021/09/19 02:58:52;;;;;;;13.30;11.90;;;13.60;99.90;;;;;;5052594;28;38808;-80
2021/09/19 03:01:18;;;;;;;12.35;11.15;;;13.60;99.90;;;;;;5042301;28;38274;-80
2021/09/19 03:03:44;;;;;;;13.90;11.77;;;13.50;99.90;;;;;;5030090;28;39396;-80
2021/09/19 03:06:11;;;;;;;13.77;11.98;;;13.50;99.90;;;;;;5044340;28;38528;-80
2021/09/19 03:08:37;;;;;;;17.75;14.65;;;13.50;99.90;;;;;;5046814;28;37924;-81
2021/09/19 03:11:03;;;;;;;16.35;14.60;;;13.40;99.90;;;;;;5047859;28;36432;-80
2021/09/19 03:13:31;;;;;;;12.90;11.50;;;13.40;99.90;;;;;;5032329;28;38593;-81
2021/09/19 03:15:57;;;;;;;13.45;12.05;;;13.40;99.90;;;;;;5029997;28;39346;-81
2021/09/19 03:18:23;;;;;;;17.08;14.70;;;13.40;99.90;;;;;;5027303;28;38704;-81
2021/09/19 03:20:49;;;;;;;14.18;12.68;;;13.30;99.90;;;;;;5044965;28;37183;-81
2021/09/19 03:23:15;;;;;;;15.32;12.27;;;13.30;99.90;;;;;;5045149;28;38973;-80
2021/09/19 03:25:42;;;;;;;15.02;13.48;;;13.30;99.90;;;;;;5044639;28;36845;-80
2021/09/19 03:28:08;;;;;;;15.95;13.80;;;13.30;99.90;;;;;;5035915;28;38509;-81
2021/09/19 03:30:34;;;;;;;16.00;14.23;;;13.30;99.90;;;;;;5049614;28;37796;-80
2021/09/19 03:33:00;;;;;;;17.10;15.32;;;13.30;99.90;;;;;;5028248;28;39223;-80
2021/09/19 03:35:26;;;;;;;17.10;15.20;;;13.30;99.90;;;;;;5043810;28;38125;-81
2021/09/19 03:37:52;;;;;;;16.52;13.77;;;13.20;99.90;;;;;;5028417;28;39930;-81
2021/09/19 03:40:18;;;;;;;16.60;14.85;;;13.20;99.90;;;;;;5043756;28;38167;-81
2021/09/19 03:42:44;;;;;;;16.67;14.38;;;13.20;99.90;;;;;;5046036;28;40197;-80
2021/09/19 03:45:11;;;;;;;17.38;14.63;;;13.20;99.90;;;;;;5041902;28;39561;-80
2021/09/19 03:47:37;;;;;;;17.38;15.55;;;13.20;99.90;;;;;;5045231;28;36304;-80
2021/09/19 03:50:06;;;;;;;16.42;14.73;;;13.20;99.90;;;;;;5041702;28;38244;-80
2021/09/19 03:52:33;;;;;;;17.40;14.93;;;13.20;99.90;;;;;;5040327;28;47511;-81
2021/09/19 03:54:59;;;;;;;19.05;17.05;;;13.20;99.90;;;;;;5041679;28;38645;-80
2021/09/19 03:57:25;;;;;;;17.27;15.45;;;13.20;99.90;;;;;;5044721;28;37837;-81
2021/09/19 03:59:51;;;;;;;17.13;15.35;;;13.20;99.90;;;;;;5043143;28;37698;-81
2021/09/19 04:02:17;;;;;;;18.77;16.85;;;13.30;99.90;;;;;;5042130;28;39289;-80
2021/09/19 04:04:43;;;;;;;17.20;15.40;;;13.30;99.90;;;;;;5029434;28;38671;-80
2021/09/19 04:07:09;;;;;;;18.10;16.17;;;13.20;99.90;;;;;;5027061;28;37557;-80
2021/09/19 04:09:35;;;;;;;18.67;16.67;;;13.20;99.90;;;;;;5032386;28;38070;-80
2021/09/19 04:12:01;;;;;;;22.95;18.80;;;13.20;99.90;;;;;;5029646;28;38356;-77
2021/09/19 04:14:27;;;;;;;20.90;18.67;;;13.20;99.90;;;;;;5062110;28;39563;-80
2021/09/19 04:16:53;;;;;;;18.75;16.27;;;13.20;99.90;;;;;;5035959;28;37265;-80
2021/09/19 04:19:19;;;;;;;20.00;17.90;;;13.20;99.90;;;;;;5049231;28;35867;-80
2021/09/19 04:21:45;;;;;;;20.00;17.90;;;13.20;99.90;;;;;;5044482;28;39828;-79
2021/09/19 04:24:11;;;;;;;20.55;18.35;;;13.20;99.90;;;;;;5040782;28;38416;-79
2021/09/19 04:26:38;;;;;;;19.65;17.70;;;13.20;99.90;;;;;;5036557;28;38146;-79
2021/09/19 04:29:03;;;;;;;21.90;18.88;;;13.20;99.90;;;;;;5024822;28;37818;-80
2021/09/19 04:31:30;;;;;;;19.58;17.52;;;13.10;99.90;;;;;;5041216;28;48274;-79
2021/09/19 04:33:56;;;;;;;19.77;17.75;;;13.10;99.90;;;;;;5043974;28;37346;-79
2021/09/19 04:36:22;;;;;;;20.50;18.20;;;13.10;99.90;;;;;;5044109;28;38529;-79
2021/09/19 04:38:48;;;;;;;20.65;17.13;;;13.10;99.90;;;;;;5045056;28;38131;-80
2021/09/19 04:41:14;;;;;;;21.73;19.40;;;13.10;99.90;;;;;;5043073;28;38731;-80
2021/09/19 04:43:40;;;;;;;24.02;20.15;;;13.00;99.90;;;;;;5047037;28;39329;-80
2021/09/19 04:46:06;;;;;;;18.95;16.95;;;13.00;99.90;;;;;;5046681;28;38068;-80
2021/09/19 04:48:32;;;;;;;20.42;18.25;;;13.00;99.90;;;;;;5043367;28;37212;-80
2021/09/19 04:50:58;;;;;;;23.52;20.63;;;13.00;99.90;;;;;;5026970;28;39444;-79
2021/09/19 04:53:24;;;;;;;21.88;19.58;;;13.00;99.90;;;;;;5043694;28;38542;-79
2021/09/19 04:55:50;;;;;;;19.98;17.90;;;13.00;99.90;;;;;;5024970;28;38540;-80
2021/09/19 04:58:17;;;;;;;21.00;18.83;;;13.00;99.90;;;;;;5040589;28;36667;-79
2021/09/19 05:00:44;;;;;;;20.40;18.25;;;13.00;99.90;;;;;;5035913;28;37425;-80
2021/09/19 05:03:10;;;;;;;19.98;17.80;;;13.00;99.90;;;;;;5033885;28;36942;-80
2021/09/19 05:05:36;;;;;;;23.35;19.45;;;13.00;99.90;;;;;;5020360;28;37591;-79
2021/09/19 05:08:02;;;;;;;23.23;20.23;;;13.00;99.90;;;;;;5037662;28;39348;-80
2021/09/19 05:10:28;;;;;;;21.70;19.40;;;12.90;99.90;;;;;;5031719;28;47142;-80
2021/09/19 05:12:54;;;;;;;21.17;18.92;;;12.90;99.90;;;;;;5035224;28;39796;-78
2021/09/19 05:15:20;;;;;;;20.58;18.38;;;12.90;99.90;;;;;;5032507;28;36292;-80
2021/09/19 05:17:46;;;;;;;22.77;19.33;;;12.90;99.90;;;;;;5012232;28;38043;-79
2021/09/19 05:20:13;;;;;;;20.63;17.95;;;12.90;99.90;;;;;;5033964;28;39240;-79
2021/09/19 05:22:39;;;;;;;22.92;20.52;;;12.90;99.90;;;;;;5036885;28;38528;-79
2021/09/19 05:25:05;;;;;;;23.60;20.63;;;12.90;99.90;;;;;;5037734;28;38108;-81
2021/09/19 05:27:31;;;;;;;21.38;19.08;;;12.90;99.90;;;;;;5036311;28;37186;-79
2021/09/19 05:29:57;;;;;;;22.27;19.85;;;12.90;99.90;;;;;;5035179;28;40406;-79
2021/09/19 05:32:23;;;;;;;21.23;18.73;;;12.90;99.90;;;;;;5013226;28;38112;-79
2021/09/19 05:34:49;;;;;;;22.48;19.23;;;12.90;99.90;;;;;;5032909;28;38255;-80
2021/09/19 05:37:16;;;;;;;22.80;20.17;;;12.90;99.90;;;;;;5033568;28;38218;-80
2021/09/19 05:39:42;;;;;;;23.42;20.13;;;12.90;99.90;;;;;;5016471;28;39905;-80
2021/09/19 05:42:08;;;;;;;23.85;21.30;;;12.90;99.90;;;;;;5017458;28;39052;-79
2021/09/19 05:44:34;;;;;;;24.30;21.38;;;12.90;99.90;;;;;;5035157;28;38535;-80
2021/09/19 05:47:00;;;;;;;22.65;20.30;;;12.90;99.90;;;;;;5038248;28;38177;-80
2021/09/19 05:49:26;;;;;;;22.05;19.73;;;12.90;99.90;;;;;;5023229;28;39976;-80
2021/09/19 05:51:52;;;;;;;21.95;19.38;;;12.90;99.90;;;;;;5010056;28;36894;-80
2021/09/19 05:54:18;;;;;;;24.05;20.58;;;12.90;99.90;;;;;;5026317;28;36730;-79
2021/09/19 05:56:44;;;;;;;24.38;20.25;;;12.90;99.90;;;;;;5026872;28;37397;-80
2021/09/19 05:59:10;;;;;;;22.58;20.17;;;12.90;99.90;;;;;;5006887;28;39565;-80
2021/09/19 06:01:36;;;;;;;20.88;18.55;;;12.90;99.90;;;;;;5019689;28;36810;-79
2021/09/19 06:04:02;;;;;;;24.05;20.05;;;13.00;99.90;;;;;;5021329;28;38595;-82
2021/09/19 06:06:28;;;;;;;22.10;19.67;;;13.00;99.90;;;;;;5015214;28;36483;-79
2021/09/19 06:08:55;;;;;;;22.40;20.13;;;13.00;99.90;;;;;;5021155;28;39757;-80
2021/09/19 06:11:21;;;;;;;20.65;18.42;;;13.00;99.90;;;;;;5015762;28;38880;-80
2021/09/19 06:13:47;;;;;;;22.98;20.52;;;13.10;99.90;;;;;;5017629;28;37052;-80
2021/09/19 06:16:13;;;;;;;20.83;18.73;;;13.10;99.90;;;;;;5018992;28;36883;-79
2021/09/19 06:18:39;;;;;;;21.83;19.05;;;13.10;99.90;;;;;;5022440;28;40781;-79
2021/09/19 06:21:05;;;;;;;20.92;18.73;;;13.20;99.90;;;;;;5024353;28;38547;-79
2021/09/19 06:23:32;;;;;;;22.58;18.98;;;13.20;99.90;;;;;;5022018;28;38336;-79
2021/09/19 06:25:59;;;;;;;20.67;18.42;;;13.30;99.90;;;;;;5022338;28;38444;-80
2021/09/19 06:28:25;;;;;;;19.38;17.40;;;13.30;99.90;;;;;;5022771;28;38740;-80
2021/09/19 06:30:51;;;;;;;21.17;18.52;;;13.40;99.90;;;;;;5024931;28;37275;-79
2021/09/19 06:33:17;;;;;;;20.45;18.23;;;13.50;99.90;;;;;;5022282;28;39011;-80
2021/09/19 06:35:43;;;;;;;20.10;17.75;;;13.50;99.90;;;;;;5029168;28;37313;-80
2021/09/19 06:38:09;;;;;;;18.48;16.55;;;13.60;99.90;;;;;;5023807;28;38820;-80
2021/09/19 06:40:36;;;;;;;19.10;16.83;;;13.70;99.90;;;;;;5040569;28;39084;-81
2021/09/19 06:43:02;;;;;;;17.45;15.63;;;13.70;99.90;;;;;;5013437;28;38550;-80
2021/09/19 06:45:28;;;;;;;16.40;14.73;;;13.90;99.90;;;;;;5024642;28;47339;-81
2021/09/19 06:47:54;;;;;;;17.73;15.82;;;13.90;99.90;;;;;;5030508;28;38789;-80
2021/09/19 06:50:21;;;;;;;15.10;13.60;;;14.00;99.90;;;;;;5041949;28;39052;-81
2021/09/19 06:52:47;;;;;;;17.38;15.57;;;14.30;99.90;;;;;;5040031;28;38465;-81
2021/09/19 06:55:13;;;;;;;15.25;13.40;;;14.40;99.90;;;;;;5024693;28;38332;-81
2021/09/19 06:57:39;;;;;;;16.33;14.73;;;14.40;99.90;;;;;;5026479;28;39378;-79
2021/09/19 07:00:06;;;;;;;15.15;13.65;;;14.40;99.90;;;;;;5027695;28;38526;-81
2021/09/19 07:02:32;;;;;;;15.95;14.27;;;14.40;99.90;;;;;;5031519;28;46528;-81
2021/09/19 07:04:58;;;;;;;15.68;13.77;;;14.40;99.90;;;;;;5027090;28;39406;-82
2021/09/19 07:07:26;;;;;;;14.70;13.20;;;14.50;99.90;;;;;;5028665;28;38403;-81
2021/09/19 07:09:52;;;;;;;15.32;13.68;;;14.40;99.90;;;;;;5032241;28;39904;-82
2021/09/19 07:12:18;;;;;;;15.05;13.45;;;14.50;99.90;;;;;;5027678;28;38904;-80
2021/09/19 07:14:44;;;;;;;15.68;14.20;;;14.60;99.90;;;;;;5027986;28;39659;-81
2021/09/19 07:17:10;;;;;;;14.40;12.90;;;14.60;99.90;;;;;;5030926;28;39352;-81
2021/09/19 07:19:36;;;;;;;14.27;12.80;;;14.70;99.90;;;;;;5034235;28;39191;-82
2021/09/19 07:22:02;;;;;;;14.95;13.45;;;14.70;99.90;;;;;;5048829;28;38030;-80
2021/09/19 07:24:28;;;;;;;14.30;12.80;;;14.80;99.90;;;;;;5047649;28;37815;-82
2021/09/19 07:26:54;;;;;;;13.10;11.88;;;14.90;99.90;;;;;;5049706;28;39629;-83
2021/09/19 07:29:21;;;;;;;12.18;10.98;;;15.00;99.90;;;;;;5050849;28;38861;-81
2021/09/19 07:31:51;;;;;;;11.98;10.77;;;15.10;99.90;;;;;;5048997;28;38988;-81
2021/09/19 07:34:17;;;;;;;12.27;11.02;;;15.20;99.90;;;;;;5032984;28;39481;-82
2021/09/19 07:36:46;;;;;;;11.98;10.63;;;15.20;99.90;;;;;;5048465;28;37953;-81
2021/09/19 07:39:13;;;;;;;11.98;10.77;;;15.20;99.90;;;;;;5046774;28;39948;-80
2021/09/19 07:41:39;;;;;;;14.52;11.15;;;15.30;99.90;;;;;;5030956;28;39291;-81
2021/09/19 07:44:05;;;;;;;10.77;9.77;;;15.40;99.90;;;;;;5042738;28;37886;-80
2021/09/19 07:46:32;;;;;;;12.15;9.75;;;15.50;99.90;;;;;;5046236;28;39684;-83
2021/09/19 07:48:58;;;;;;;12.35;11.15;;;15.70;99.90;;;;;;5050587;28;39486;-81
2021/09/19 07:51:25;;;;;;;11.27;9.98;;;15.70;99.90;;;;;;5039174;28;37997;-81
2021/09/19 07:53:52;;;;;;;11.82;10.63;;;15.70;99.90;;;;;;5013259;28;39298;-81
2021/09/19 07:56:20;;;;;;;11.63;10.52;;;15.70;99.90;;;;;;5024227;28;40763;-81
2021/09/19 07:58:46;;;;;;;10.43;9.40;;;15.70;99.90;;;;;;5028093;28;38051;-82
2021/09/19 08:01:12;;;;;;;10.95;9.95;;;15.80;99.90;;;;;;5030315;28;38377;-81
2021/09/19 08:03:38;;;;;;;10.85;9.80;;;16.00;99.90;;;;;;5028016;28;35160;-81
2021/09/19 08:06:05;;;;;;;10.93;9.23;;;16.10;99.90;;;;;;5027186;28;37253;-81
2021/09/19 08:08:32;;;;;;;10.05;9.05;;;16.20;99.90;;;;;;5027771;28;39103;-80
2021/09/19 08:10:59;;;;;;;9.93;8.93;;;16.30;99.90;;;;;;5021950;28;38266;-80
2021/09/19 08:13:25;;;;;;;12.75;8.95;;;16.40;99.90;;;;;;5019678;28;38501;-82
2021/09/19 08:15:51;;;;;;;8.52;7.72;;;16.30;99.90;;;;;;5020273;28;39401;-81
2021/09/19 08:18:17;;;;;;;10.07;8.45;;;16.40;99.90;;;;;;5027475;28;38769;-81
2021/09/19 08:20:44;;;;;;;9.20;7.72;;;16.50;99.90;;;;;;5044998;28;38840;-81
2021/09/19 08:23:10;;;;;;;9.02;8.13;;;16.50;99.90;;;;;;5029689;28;37130;-81
2021/09/19 08:25:36;;;;;;;9.75;7.80;;;16.70;99.90;;;;;;5030059;28;39477;-80
2021/09/19 08:28:03;;;;;;;8.70;7.45;;;16.90;99.90;;;;;;5049785;28;38977;-79
2021/09/19 08:30:29;;;;;;;9.45;7.88;;;17.00;99.90;;;;;;5030139;28;38953;-81
2021/09/19 08:32:55;;;;;;;10.55;7.88;;;17.10;99.90;;;;;;5039047;28;37161;-81
2021/09/19 08:35:21;;;;;;;11.02;8.25;;;17.00;99.90;;;;;;5022970;28;39568;-80
2021/09/19 08:37:47;;;;;;;9.40;7.93;;;16.90;99.90;;;;;;5049479;28;38134;-82
2021/09/19 08:40:14;;;;;;;7.70;7.00;;;16.80;99.90;;;;;;5042179;28;38067;-81
2021/09/19 08:42:41;;;;;;;8.27;7.47;;;16.90;99.90;;;;;;5050423;28;38017;-81
2021/09/19 08:45:09;;;;;;;9.85;7.10;;;17.00;99.90;;;;;;5044868;28;39698;-81
2021/09/19 08:47:36;;;;;;;8.07;7.28;;;17.10;99.90;;;;;;5047474;28;38661;-81
2021/09/19 08:50:08;;;;;;;10.75;7.28;;;17.30;99.90;;;;;;5025330;28;39439;-80
2021/09/19 08:52:34;;;;;;;;;;;17.30;99.90;;;;;;5032084;28;45548;-81
2021/09/19 08:55:00;;;;;;;9.63;6.68;;;17.40;99.90;;;;;;5023520;28;39995;-81
2021/09/19 08:57:26;;;;;;;8.63;6.50;;;17.50;99.90;;;;;;5030393;28;38923;-82
2021/09/19 08:59:54;;;;;;;7.50;6.65;;;17.60;99.90;;;;;;5030265;28;38179;-81
2021/09/19 09:02:21;;;;;;;7.85;6.85;;;17.60;99.90;;;;;;5023407;28;36051;-82
2021/09/19 09:04:53;;;;;;;7.68;6.10;;;17.80;99.90;;;;;;5047157;28;38690;-82
2021/09/19 09:07:20;;;;;;;10.88;7.43;;;17.90;99.90;;;;;;5044584;28;39571;-82
2021/09/19 09:09:55;;;;;;;7.10;6.28;;;18.00;99.90;;;;;;5030160;28;38439;-83
2021/09/19 09:12:23;;;;;;;6.68;5.60;;;18.00;99.90;;;;;;5031822;28;38370;-82
2021/09/19 09:14:52;;;;;;;7.85;5.85;;;18.00;99.90;;;;;;5030693;28;39547;-82
2021/09/19 09:17:20;;;;;;;6.20;5.43;;;18.10;99.90;;;;;;5048974;28;38085;-82
2021/09/19 09:19:52;;;;;;;6.35;5.15;;;18.00;99.90;;;;;;5047539;28;37847;-82
2021/09/19 09:22:23;;;;;;;6.88;5.80;;;18.20;99.90;;;;;;5038289;28;38282;-82
2021/09/19 09:25:25;;;;;;;7.40;5.93;;;18.40;99.90;;;;;;5055848;28;39216;-82
2021/09/19 09:27:52;;;;;;;4.78;4.35;;;18.50;99.90;;;;;;5010045;28;49151;-82
2021/09/19 09:30:20;;;;;;;5.43;4.93;;;18.60;99.90;;;;;;5055629;28;37116;-81
2021/09/19 09:32:52;;;;;;;6.53;5.55;;;18.70;99.90;;;;;;5052799;28;38292;-82
2021/09/19 09:35:19;;;;;;;5.65;5.00;;;18.70;99.90;;;;;;5027476;28;39444;-81
2021/09/19 09:37:45;;;;;;;7.70;5.82;;;18.80;99.90;;;;;;5031243;28;38098;-82
2021/09/19 09:40:24;;;;;;;6.22;5.70;;;18.90;99.90;;;;;;5033929;28;39417;-81
2021/09/19 09:43:11;;;;;;;8.15;6.07;;;18.90;99.90;;;;;;5052906;28;36994;-82
2021/09/19 09:45:39;;;;;;;8.23;5.97;;;18.80;99.90;;;;;;5039164;28;48646;-83
2021/09/19 09:48:30;;;;;;;8.20;5.95;;;18.90;99.90;;;;;;5034334;28;38324;-83
2021/09/19 09:51:02;;;;;;;6.60;5.93;;;19.10;99.90;;;;;;5033138;28;37261;-83
2021/09/19 09:53:29;;;;;;;6.53;5.63;;;19.20;99.90;;;;;;5030701;28;47299;-83
2021/09/19 09:55:58;;;;;;;6.90;6.10;;;19.40;99.90;;;;;;5034193;28;39480;-81
2021/09/19 09:58:24;;;;;;;7.75;5.60;;;19.40;99.90;;;;;;5031819;28;39287;-81
2021/09/19 10:00:57;;;;;;;7.28;6.43;;;19.60;99.90;;;;;;5033730;28;37058;-81
2021/09/19 10:03:24;;;;;;;6.97;6.28;;;19.70;99.90;;;;;;5029508;28;38005;-82
2021/09/19 10:05:50;;;;;;;7.00;6.22;;;19.90;99.90;;;;;;5047781;28;38828;-84
2021/09/19 10:08:16;;;;;;;7.40;6.55;;;19.80;99.90;;;;;;5036610;28;40688;-82
2021/09/19 10:10:45;;;;;;;6.88;6.28;;;19.80;99.90;;;;;;5052633;28;39143;-81
2021/09/19 10:13:14;;;;;;;8.02;7.32;;;19.90;99.90;;;;;;5051649;28;37479;-81
2021/09/19 10:15:44;;;;;;;7.22;6.53;;;19.80;99.90;;;;;;5040261;28;40707;-84
2021/09/19 10:18:26;;;;;;;6.75;6.05;;;20.10;99.90;;;;;;5040649;28;38230;-84
2021/09/19 10:21:07;;;;;;;6.28;5.38;;;20.20;99.90;;;;;;5068296;28;37090;-83
2021/09/19 10:23:43;;;;;;;6.95;6.25;;;20.50;99.90;;;;;;5061964;28;49317;-83
2021/09/19 10:26:12;;;;;;;7.18;6.47;;;20.70;99.90;;;;;;5065739;28;39449;-82
2021/09/19 10:28:45;;;;;;;7.68;6.88;;;20.40;99.90;;;;;;5059616;28;38876;-83
2021/09/19 10:31:18;;;;;;;10.52;7.68;;;20.30;99.90;;;;;;5052664;28;37615;-83
2021/09/19 10:34:01;;;;;;;7.03;6.22;;;20.40;99.90;;;;;;5046210;28;36650;-83
2021/09/19 10:36:35;;;;;;;8.80;6.47;;;20.60;99.90;;;;;;5060453;28;49333;-83
2021/09/19 10:39:26;;;;;;;7.10;6.40;;;20.70;99.90;;;;;;5058964;28;39141;-78
2021/09/19 10:42:17;;;;;;;8.10;6.38;;;20.60;99.90;;;;;;5041377;28;37099;-81
2021/09/19 10:44:49;;;;;;;7.45;6.68;;;20.90;99.90;;;;;;5038665;28;47229;-83
2021/09/19 10:47:43;;;;;;;7.93;7.20;;;21.00;99.90;;;;;;5037450;28;39576;-81
2021/09/19 10:50:31;;;;;;;8.80;7.25;;;20.80;99.90;;;;;;5048530;28;38083;-79
2021/09/19 10:52:58;;;;;;;7.60;6.75;;;20.80;99.90;;;;;;5037526;28;38029;-81
2021/09/19 10:55:53;;;;;;;6.95;6.13;;;20.90;99.90;;;;;;5033834;28;37927;-81
2021/09/19 10:58:33;;;;;;;9.13;6.90;;;21.20;99.90;;;;;;5048994;28;39965;-80
2021/09/19 11:01:08;;;;;;;7.55;6.85;;;21.60;99.90;;;;;;5053713;28;38344;-80
2021/09/19 11:03:34;;;;;;;7.00;6.30;;;21.60;99.90;;;;;;5055176;28;49386;-81
2021/09/19 11:06:01;;;;;;;7.85;6.95;;;21.70;99.90;;;;;;5052569;28;38185;-80
2021/09/19 11:08:29;;;;;;;6.95;5.97;;;21.60;99.90;;;;;;5051592;28;37825;-81
2021/09/19 11:10:58;;;;;;;7.78;7.07;;;21.50;99.90;;;;;;5046428;28;37550;-82
2021/09/19 11:13:41;;;;;;;9.23;7.20;;;21.70;99.90;;;;;;5021801;28;37175;-81
2021/09/19 11:16:07;;;;;;;7.22;6.53;;;21.80;99.90;;;;;;5030767;28;38365;-81
2021/09/19 11:18:42;;;;;;;9.48;7.22;;;21.70;99.90;;;;;;5033063;28;37791;-81
2021/09/19 11:21:12;;;;;;;7.13;6.43;;;21.80;99.90;;;;;;5029866;28;37305;-82
2021/09/19 11:23:45;;;;;;;6.43;5.80;;;21.90;99.90;;;;;;5028571;28;38164;-81
2021/09/19 11:26:16;;;;;;;10.23;6.97;;;22.10;99.90;;;;;;5047691;28;37791;-81
2021/09/19 11:28:42;;;;;;;8.65;7.20;;;21.70;99.90;;;;;;5033156;28;39215;-81
2021/09/19 11:31:08;;;;;;;8.00;7.20;;;21.90;99.90;;;;;;5031831;28;38352;-82
2021/09/19 11:33:35;;;;;;;10.23;7.55;;;21.80;99.90;;;;;;5032088;28;39574;-82
2021/09/19 11:36:04;;;;;;;8.02;6.78;;;21.80;99.90;;;;;;5030358;28;38097;-80
2021/09/19 11:38:35;;;;;;;9.05;7.68;;;21.60;99.90;;;;;;5030925;28;40298;-81
2021/09/19 11:41:02;;;;;;;8.40;7.60;;;21.60;99.90;;;;;;5030946;28;38290;-80
2021/09/19 11:43:31;;;;;;;8.20;7.28;;;21.70;99.90;;;;;;5031093;28;37945;-81
2021/09/19 11:45:57;;;;;;;9.23;7.85;;;21.80;99.90;;;;;;5029397;28;37405;-81
2021/09/19 11:48:23;;;;;;;9.48;8.48;;;22.00;99.90;;;;;;5031479;28;38979;-81
2021/09/19 11:50:52;;;;;;;11.93;7.38;;;22.30;99.90;;;;;;5014582;28;39132;-81
2021/09/19 11:53:19;;;;;;;9.90;8.90;;;22.00;99.90;;;;;;5020683;28;39815;-81
2021/09/19 11:55:46;;;;;;;9.27;7.38;;;22.00;99.90;;;;;;5041105;28;37418;-84
2021/09/19 11:58:19;;;;;;;9.73;8.52;;;22.00;99.90;;;;;;5022906;28;40272;-81
2021/09/19 12:00:53;;;;;;;9.23;7.65;;;22.20;99.90;;;;;;5036778;28;38839;-81
2021/09/19 12:03:19;;;;;;;8.85;7.68;;;22.10;99.90;;;;;;5024021;28;37764;-82
2021/09/19 12:05:50;;;;;;;9.85;8.60;;;21.90;99.90;;;;;;5025076;28;36902;-82
2021/09/19 12:08:18;;;;;;;12.10;7.95;;;21.90;99.90;;;;;;5028259;28;39139;-82
2021/09/19 12:10:44;;;;;;;8.82;7.15;;;21.90;99.90;;;;;;5025332;28;37051;-81
2021/09/19 12:13:23;;;;;;;8.05;7.25;;;22.20;99.90;;;;;;5025031;28;40173;-81
2021/09/19 12:16:09;;;;;;;9.57;8.02;;;22.20;99.90;;;;;;5029135;28;38137;-81
2021/09/19 12:18:41;;;;;;;9.20;7.57;;;22.20;99.90;;;;;;5040403;28;46982;-82
2021/09/19 12:21:09;;;;;;;;;;;22.10;99.90;;;;;;5028854;28;38594;-82
2021/09/19 12:23:44;;;;;;;9.43;7.72;;;22.10;99.90;;;;;;5030872;28;37335;-81
2021/09/19 12:26:16;;;;;;;9.68;7.70;;;22.00;99.90;;;;;;5026442;28;38850;-82
2021/09/19 12:28:43;;;;;;;10.95;7.05;;;22.00;99.90;;;;;;5029830;28;37352;-82
2021/09/19 12:31:11;;;;;;;8.23;7.40;;;22.30;99.90;;;;;;5023831;28;38511;-81
2021/09/19 12:33:54;;;;;;;9.73;8.73;;;22.50;99.90;;;;;;5036337;28;38090;-81
2021/09/19 12:36:21;;;;;;;10.90;7.82;;;22.40;99.90;;;;;;5021850;28;38183;-81